KOVE/OVE METAR and TAF weather

Enter ICAO airport designator
Station Type Date Time Source
KOVE METAR 2020/12/06 00:53 UTC NOAA

KOVE 060053Z AUTO 09008KT 10SM CLR 14/03 A3024 RMK AO2 SLP242 T01390028


Station Type Date Time Source
KOVE Decoded METAR 2020/12/06 00:53 UTC NOAA

OROVILLE MUNICIPAL AIRPORT, CA, United States (KOVE) 39-30N 121-37W 58M
Dec 05, 2020 - 07:53 PM EST / 2020.12.06 0053 UTC
Wind: from the E (090 degrees) at 9 MPH (8 KT):0
Visibility: 10 mile(s):0
Sky conditions: clear
Temperature: 57.0 F (13.9 C)
Dew Point: 37.0 F (2.8 C)
Relative Humidity: 47%
Pressure (altimeter): 30.24 in. Hg (1024 hPa)
ob: KOVE 060053Z AUTO 09008KT 10SM CLR 14/03 A3024 RMK AO2 SLP242 T01390028
cycle: 1

Station Type Date Time Source
KOVE TAF UTC NOAA

Error!

Example: see airport list